Terminal Aerodrome Forecast
Issued by NWS Wilmington, OH

Current Version | Previous Version | Text Only | Print | Product List | Glossary Off
Versions: 1 2 3 4 5 6 7 8 9 10 11 12 13 14 15 16 17 18 19 20 21 22 23 24 25 26

000
FTUS41 KILN 220900 AAC
TAFDAY
TAF AMD
KDAY 220900Z 2209/2306 02007KT P6SM BKN028 BKN080 OVC110
      TEMPO 2209/2211 5SM -TSRA BR OVC025CB
     FM221300 23006KT P6SM VCSH BKN015
     FM221500 25008KT P6SM -SHRA VCTS BKN022CB
     FM221900 26009KT P6SM BKN035
     FM222300 27007KT P6SM VCTS BKN040CB
     FM230300 24004KT P6SM SCT040 BKN080=

USA.gov is the U.S. government's official web portal to all federal, state and local government web resources and services.